Time,TemperatureF,DewpointF,PressureIn,WindDirection,WindDirectionDegrees,WindSpeedMPH,WindSpeedGustMPH,Humidity,HourlyPrecipIn,Conditions,Clouds,dailyrainin,SolarRadiationWatts/m^2,SoftwareType,DateUTC
2013-03-21 00:07:00,68.3,62.0,30.26,SE,126,5.0,5.0,82,0.00,,,0.00,146,weatherlink.com 1.10,2013-03-21 07:07:00,
2013-03-21 00:27:00,68.3,62.0,30.27,SE,126,5.0,5.0,82,0.00,,,0.00,146,weatherlink.com 1.10,2013-03-21 07:27:00,
2013-03-21 00:52:00,68.3,62.0,30.26,SE,126,5.0,5.0,82,0.00,,,0.00,146,weatherlink.com 1.10,2013-03-21 07:52:00,
2013-03-21 01:07:00,68.3,62.0,30.26,SE,126,5.0,5.0,82,0.00,,,0.00,146,weatherlink.com 1.10,2013-03-21 08:07:00,
2013-03-21 01:27:00,68.3,62.0,30.26,SE,126,5.0,5.0,82,0.00,,,0.00,146,weatherlink.com 1.10,2013-03-21 08:27:00,
2013-03-21 01:52:00,68.3,62.0,30.26,SE,126,5.0,5.0,82,0.00,,,0.00,146,weatherlink.com 1.10,2013-03-21 08:52:00,
2013-03-21 02:12:00,68.3,62.0,30.26,SE,126,5.0,5.0,82,0.00,,,0.00,146,weatherlink.com 1.10,2013-03-21 09:12:00,
2013-03-21 02:32:00,68.4,62.0,30.26,SE,126,5.0,5.0,82,0.00,,,0.00,146,weatherlink.com 1.10,2013-03-21 09:32:00,
2013-03-21 02:52:00,68.3,62.0,30.25,SE,126,5.0,5.0,83,0.00,,,0.00,146,weatherlink.com 1.10,2013-03-21 09:52:00,
2013-03-21 03:12:00,68.3,62.0,30.25,SE,126,5.0,5.0,82,0.00,,,0.00,146,weatherlink.com 1.10,2013-03-21 10:12:00,
2013-03-21 03:32:00,68.3,62.0,30.25,SE,126,5.0,5.0,82,0.00,,,0.00,146,weatherlink.com 1.10,2013-03-21 10:32:00,
2013-03-21 03:52:00,68.3,62.0,30.24,SE,126,5.0,5.0,83,0.00,,,0.00,146,weatherlink.com 1.10,2013-03-21 10:52:00,
2013-03-21 04:07:00,68.3,62.0,30.25,SE,126,5.0,5.0,83,0.00,,,0.00,146,weatherlink.com 1.10,2013-03-21 11:07:00,
2013-03-21 04:27:00,68.3,62.0,30.24,SE,126,5.0,5.0,83,0.00,,,0.00,146,weatherlink.com 1.10,2013-03-21 11:27:00,
2013-03-21 04:47:00,68.3,62.0,30.25,SE,126,5.0,5.0,83,0.00,,,0.00,146,weatherlink.com 1.10,2013-03-21 11:47:00,
2013-03-21 05:12:00,68.3,62.0,30.25,SE,126,5.0,5.0,82,0.00,,,0.00,146,weatherlink.com 1.10,2013-03-21 12:12:00,
2013-03-21 05:32:00,68.3,62.0,30.24,SE,126,5.0,5.0,83,0.00,,,0.00,146,weatherlink.com 1.10,2013-03-21 12:32:00,
2013-03-21 05:52:00,68.3,62.0,30.23,SE,126,5.0,5.0,83,0.00,,,0.00,146,weatherlink.com 1.10,2013-03-21 12:52:00,
2013-03-21 06:07:00,68.3,62.0,30.23,SE,126,5.0,5.0,83,0.00,,,0.00,146,weatherlink.com 1.10,2013-03-21 13:07:00,
2013-03-21 06:27:00,68.3,62.0,30.23,SE,126,5.0,5.0,83,0.00,,,0.00,146,weatherlink.com 1.10,2013-03-21 13:27:00,
2013-03-21 06:47:00,68.3,62.0,30.24,SE,126,5.0,5.0,83,0.00,,,0.00,146,weatherlink.com 1.10,2013-03-21 13:47:00,
2013-03-21 07:07:00,68.3,62.0,30.24,SE,126,5.0,5.0,83,0.00,,,0.00,146,weatherlink.com 1.10,2013-03-21 14:07:00,
2013-03-21 07:27:00,68.3,62.0,30.24,SE,126,5.0,5.0,83,0.00,,,0.00,146,weatherlink.com 1.10,2013-03-21 14:27:00,
2013-03-21 07:47:00,68.4,63.0,30.24,SE,126,5.0,5.0,83,0.00,,,0.00,146,weatherlink.com 1.10,2013-03-21 14:47:00,
2013-03-21 08:07:00,68.3,62.0,30.25,SE,126,5.0,5.0,82,0.00,,,0.00,146,weatherlink.com 1.10,2013-03-21 15:07:00,
2013-03-21 08:27:00,62.0,56.0,30.25,NE,40,6.0,6.0,82,0.62,,,0.56,146,weatherlink.com 1.10,2013-03-21 15:27:00,
2013-03-21 08:47:00,62.0,56.0,30.25,NE,38,5.0,5.0,82,1.00,,,1.00,142,weatherlink.com 1.10,2013-03-21 15:47:00,
2013-03-21 09:07:00,62.0,56.0,30.25,NE,38,5.0,5.0,82,1.00,,,1.00,142,weatherlink.com 1.10,2013-03-21 16:07:00,
2013-03-21 09:27:00,62.0,56.0,30.25,NE,38,5.0,5.0,82,0.29,,,1.00,142,weatherlink.com 1.10,2013-03-21 16:27:00,
2013-03-21 09:47:00,62.1,56.0,30.25,NE,38,5.0,6.0,82,0.00,,,0.00,142,weatherlink.com 1.10,2013-03-21 16:47:00,
2013-03-21 10:07:00,62.1,56.0,30.24,NE,38,5.0,5.0,82,0.00,,,0.00,142,weatherlink.com 1.10,2013-03-21 17:07:00,
2013-03-21 10:27:00,62.1,56.0,30.24,NE,38,5.0,5.0,82,0.00,,,0.00,142,weatherlink.com 1.10,2013-03-21 17:27:00,
2013-03-21 10:47:00,62.3,56.0,30.25,NE,38,5.0,5.0,82,0.00,,,0.00,142,weatherlink.com 1.10,2013-03-21 17:47:00,
2013-03-21 11:12:00,69.8,64.0,30.06,NE,38,16.0,16.0,82,0.00,,,0.00,200,weatherlink.com 1.10,2013-03-21 18:12:00,
2013-03-21 11:32:00,69.6,63.0,30.05,NE,38,16.0,16.0,82,0.00,,,0.00,200,weatherlink.com 1.10,2013-03-21 18:32:00,
2013-03-21 11:52:00,77.0,73.0,30.05,NE,38,16.0,16.0,88,0.00,,,0.00,200,weatherlink.com 1.10,2013-03-21 18:52:00,
2013-03-21 12:07:00,77.0,73.0,30.05,NE,38,16.0,16.0,88,0.00,,,0.00,200,weatherlink.com 1.10,2013-03-21 19:07:00,
2013-03-21 12:27:00,77.0,73.0,30.04,NE,38,16.0,16.0,88,0.00,,,0.00,200,weatherlink.com 1.10,2013-03-21 19:27:00,
2013-03-21 12:47:00,77.0,73.0,30.03,NE,38,16.0,16.0,88,0.00,,,0.00,200,weatherlink.com 1.10,2013-03-21 19:47:00,
2013-03-21 13:07:00,77.0,73.0,30.03,NE,38,16.0,16.0,88,0.00,,,0.00,200,weatherlink.com 1.10,2013-03-21 20:07:00,
2013-03-21 13:27:00,77.0,73.0,30.02,NE,38,16.0,16.0,88,0.00,,,0.00,200,weatherlink.com 1.10,2013-03-21 20:27:00,
2013-03-21 13:47:00,77.0,73.0,30.02,NE,38,16.0,16.0,88,0.00,,,0.00,200,weatherlink.com 1.10,2013-03-21 20:47:00,
2013-03-21 14:07:00,77.2,73.0,30.01,NE,38,16.0,16.0,88,0.00,,,0.00,200,weatherlink.com 1.10,2013-03-21 21:07:00,
2013-03-21 14:27:00,77.0,73.0,30.00,NE,38,16.0,16.0,88,0.00,,,0.00,200,weatherlink.com 1.10,2013-03-21 21:27:00,
2013-03-21 14:47:00,77.0,73.0,29.99,NE,38,16.0,16.0,88,0.00,,,0.00,200,weatherlink.com 1.10,2013-03-21 21:47:00,
2013-03-21 15:13:00,-999.0,-99.9,29.99,North,-999,-999.0,-999.0,-999,0.00,,,0.00,,weatherlink.com 1.10,2013-03-21 22:13:00,
2013-03-21 15:32:00,-999.0,-99.9,29.98,North,-999,-999.0,-999.0,-999,0.00,,,0.00,,weatherlink.com 1.10,2013-03-21 22:32:00,
2013-03-21 15:52:00,111.3,96.0,29.97,NE,38,16.0,16.0,64,0.00,,,0.00,271,weatherlink.com 1.10,2013-03-21 22:52:00,
2013-03-21 16:13:00,111.3,96.0,29.97,NE,38,16.0,16.0,64,0.00,,,0.00,271,weatherlink.com 1.10,2013-03-21 23:13:00,
2013-03-21 16:32:00,111.3,96.0,29.97,NE,38,16.0,16.0,64,0.00,,,0.00,271,weatherlink.com 1.10,2013-03-21 23:32:00,
2013-03-21 16:52:00,111.3,96.0,29.96,NE,38,16.0,16.0,64,0.00,,,0.00,271,weatherlink.com 1.10,2013-03-21 23:52:00,
2013-03-21 17:07:00,111.3,96.0,29.96,NE,38,16.0,16.0,64,0.00,,,0.00,271,weatherlink.com 1.10,2013-03-22 00:07:00,
2013-03-21 17:27:00,111.3,96.0,29.96,NE,38,16.0,16.0,64,0.00,,,0.00,271,weatherlink.com 1.10,2013-03-22 00:27:00,
2013-03-21 17:47:00,111.3,96.0,29.96,NE,38,16.0,16.0,64,0.00,,,0.00,271,weatherlink.com 1.10,2013-03-22 00:47:00,
2013-03-21 18:07:00,111.3,96.0,29.95,NE,38,16.0,16.0,64,0.00,,,0.00,271,weatherlink.com 1.10,2013-03-22 01:07:00,
2013-03-21 18:27:00,111.3,96.0,29.96,NE,38,16.0,16.0,64,0.00,,,0.00,271,weatherlink.com 1.10,2013-03-22 01:27:00,
2013-03-21 18:47:00,111.3,96.0,29.96,NE,38,16.0,16.0,64,0.00,,,0.00,271,weatherlink.com 1.10,2013-03-22 01:47:00,
2013-03-21 19:07:00,111.3,96.0,29.96,NE,38,16.0,16.0,64,0.00,,,0.00,271,weatherlink.com 1.10,2013-03-22 02:07:00,
2013-03-21 19:27:00,111.3,96.0,29.96,NE,38,16.0,16.0,64,0.00,,,0.00,271,weatherlink.com 1.10,2013-03-22 02:27:00,
2013-03-21 19:47:00,111.3,96.0,29.96,NE,38,16.0,16.0,64,0.00,,,0.00,271,weatherlink.com 1.10,2013-03-22 02:47:00,
2013-03-21 20:07:00,111.3,96.0,29.96,NE,38,16.0,16.0,64,0.00,,,0.00,271,weatherlink.com 1.10,2013-03-22 03:07:00,
2013-03-21 20:27:00,111.3,96.0,29.96,NE,38,16.0,16.0,64,0.00,,,0.00,271,weatherlink.com 1.10,2013-03-22 03:27:00,
2013-03-21 20:42:00,111.3,96.0,29.97,NE,38,16.0,16.0,64,0.00,,,0.00,271,weatherlink.com 1.10,2013-03-22 03:42:00,
2013-03-21 21:02:00,111.3,96.0,29.97,NE,38,16.0,16.0,64,0.00,,,0.00,271,weatherlink.com 1.10,2013-03-22 04:02:00,
2013-03-21 21:22:00,111.3,96.0,29.97,NE,38,16.0,16.0,64,0.00,,,0.00,271,weatherlink.com 1.10,2013-03-22 04:22:00,
2013-03-21 21:42:00,111.3,96.0,29.97,NE,38,16.0,16.0,64,0.00,,,0.00,271,weatherlink.com 1.10,2013-03-22 04:42:00,
2013-03-21 22:07:00,111.3,96.0,29.98,NE,38,16.0,16.0,64,0.00,,,0.00,271,weatherlink.com 1.10,2013-03-22 05:07:00,
2013-03-21 22:27:00,111.3,96.0,29.98,NE,38,16.0,16.0,64,0.00,,,0.00,271,weatherlink.com 1.10,2013-03-22 05:27:00,
2013-03-21 22:47:00,111.3,96.0,29.99,NE,38,16.0,16.0,64,0.00,,,0.00,271,weatherlink.com 1.10,2013-03-22 05:47:00,
2013-03-21 23:07:00,111.3,96.0,29.98,NE,38,16.0,16.0,64,0.00,,,0.00,271,weatherlink.com 1.10,2013-03-22 06:07:00,
2013-03-21 23:27:00,111.3,96.0,29.98,NE,38,16.0,16.0,64,0.00,,,0.00,271,weatherlink.com 1.10,2013-03-22 06:27:00,
2013-03-21 23:47:00,111.3,96.0,29.98,NE,38,16.0,16.0,64,0.00,,,0.00,271,weatherlink.com 1.10,2013-03-22 06:47:00,